Time,TemperatureF,DewpointF,PressureIn,WindDirection,WindDirectionDegrees,WindSpeedMPH,WindSpeedGustMPH,Humidity,HourlyPrecipIn,Conditions,Clouds,dailyrainin,SoftwareType,DateUTC
2013-05-13 00:02:00,39.2,23.5,29.14,NE,45,4.6,4.6,53,0.00,CLR,,0.00,WeatherDisplay:10.37,2013-05-13 05:02:00,
2013-05-13 00:07:00,39.2,23.5,29.14,NE,45,4.6,4.6,53,0.00,CLR,,0.00,WeatherDisplay:10.37,2013-05-13 05:07:00,
2013-05-13 00:12:00,38.3,23.5,29.15,North,0,4.6,4.6,55,0.00,CLR,,0.00,WeatherDisplay:10.37,2013-05-13 05:12:00,
2013-05-13 00:17:00,37.8,24.7,29.15,NE,45,8.1,8.1,59,0.00,CLR,,0.00,WeatherDisplay:10.37,2013-05-13 05:17:00,
2013-05-13 00:22:00,38.1,25.8,29.15,NE,45,6.9,6.9,61,0.00,CLR,,0.00,WeatherDisplay:10.37,2013-05-13 05:22:00,
2013-05-13 00:27:00,37.8,27.0,29.15,NE,45,6.9,6.9,65,0.00,CLR,,0.00,WeatherDisplay:10.37,2013-05-13 05:27:00,
2013-05-13 00:32:00,37.6,26.9,29.15,NE,45,4.6,4.6,65,0.00,CLR,,0.00,WeatherDisplay:10.37,2013-05-13 05:32:00,
2013-05-13 00:37:00,37.4,26.3,29.15,North,0,4.6,4.6,64,0.00,CLR,,0.00,WeatherDisplay:10.37,2013-05-13 05:37:00,
2013-05-13 00:42:00,37.4,25.6,29.15,NE,45,4.6,4.6,62,0.00,CLR,,0.00,WeatherDisplay:10.37,2013-05-13 05:42:00,
2013-05-13 00:47:00,37.4,25.6,29.15,NE,45,4.6,4.6,62,0.00,CLR,,0.00,WeatherDisplay:10.37,2013-05-13 05:47:00,
2013-05-13 00:52:00,37.2,25.8,29.15,North,0,5.8,5.8,63,0.00,CLR,,0.00,WeatherDisplay:10.37,2013-05-13 05:52:00,
2013-05-13 00:57:00,37.2,26.2,29.15,NE,45,6.9,6.9,64,0.00,CLR,,0.00,WeatherDisplay:10.37,2013-05-13 05:57:00,
2013-05-13 01:02:00,37.2,26.2,29.15,NE,45,5.8,5.8,64,0.00,CLR,,0.00,WeatherDisplay:10.37,2013-05-13 06:02:00,
2013-05-13 01:07:00,37.2,26.2,29.15,NE,45,5.8,5.8,64,0.00,CLR,,0.00,WeatherDisplay:10.37,2013-05-13 06:07:00,
2013-05-13 01:12:00,37.4,25.2,29.15,NE,45,6.9,6.9,61,0.00,CLR,,0.00,WeatherDisplay:10.37,2013-05-13 06:12:00,
2013-05-13 01:17:00,37.2,24.6,29.15,NE,45,6.9,6.9,60,0.00,CLR,,0.00,WeatherDisplay:10.37,2013-05-13 06:17:00,
2013-05-13 01:22:00,37.2,24.2,29.15,NE,45,5.8,5.8,59,0.00,CLR,,0.00,WeatherDisplay:10.37,2013-05-13 06:22:00,
2013-05-13 01:27:00,37.0,24.0,29.15,NE,45,5.8,5.8,59,0.00,CLR,,0.00,WeatherDisplay:10.37,2013-05-13 06:27:00,
2013-05-13 01:32:00,36.9,23.0,29.15,NE,45,5.8,5.8,57,0.00,CLR,,0.00,WeatherDisplay:10.37,2013-05-13 06:32:00,
2013-05-13 01:37:00,36.9,22.6,29.15,NE,45,6.9,6.9,56,0.00,CLR,,0.00,WeatherDisplay:10.37,2013-05-13 06:37:00,
2013-05-13 01:42:00,36.7,22.4,29.15,NE,45,5.8,5.8,56,0.00,CLR,,0.00,WeatherDisplay:10.37,2013-05-13 06:42:00,
2013-05-13 01:47:00,36.7,22.4,29.15,North,0,5.8,5.8,56,0.00,CLR,,0.00,WeatherDisplay:10.37,2013-05-13 06:47:00,
2013-05-13 01:52:00,36.5,22.7,29.16,NE,45,4.6,4.6,57,0.00,CLR,,0.00,WeatherDisplay:10.37,2013-05-13 06:52:00,
2013-05-13 01:57:00,36.3,22.5,29.15,NE,45,4.6,4.6,57,0.00,CLR,,0.00,WeatherDisplay:10.37,2013-05-13 06:57:00,
2013-05-13 02:02:00,36.1,21.9,29.15,NE,45,4.6,4.6,56,0.00,CLR,,0.00,WeatherDisplay:10.37,2013-05-13 07:02:00,
2013-05-13 02:07:00,36.1,21.9,29.15,NE,45,4.6,4.6,56,0.00,CLR,,0.00,WeatherDisplay:10.37,2013-05-13 07:07:00,
2013-05-13 02:12:00,35.8,22.4,29.15,NE,45,4.6,4.6,58,0.00,CLR,,0.00,WeatherDisplay:10.37,2013-05-13 07:12:00,
2013-05-13 02:17:00,35.6,22.3,29.15,NE,45,5.8,5.8,58,0.00,CLR,,0.00,WeatherDisplay:10.37,2013-05-13 07:17:00,
2013-05-13 02:22:00,35.4,21.7,29.15,NE,45,4.6,4.6,57,0.00,CLR,,0.00,WeatherDisplay:10.37,2013-05-13 07:22:00,
2013-05-13 02:27:00,35.6,21.9,29.15,NE,45,4.6,4.6,57,0.00,CLR,,0.00,WeatherDisplay:10.37,2013-05-13 07:27:00,
2013-05-13 02:32:00,35.6,21.4,29.15,North,0,6.9,6.9,56,0.00,CLR,,0.00,WeatherDisplay:10.37,2013-05-13 07:32:00,
2013-05-13 02:37:00,35.8,21.2,29.15,NE,45,5.8,5.8,55,0.00,CLR,,0.00,WeatherDisplay:10.37,2013-05-13 07:37:00,
2013-05-13 02:42:00,35.8,21.2,29.15,NE,45,5.8,5.8,55,0.00,CLR,,0.00,WeatherDisplay:10.37,2013-05-13 07:42:00,
2013-05-13 02:47:00,35.6,20.6,29.15,NE,45,4.6,4.6,54,0.00,CLR,,0.00,WeatherDisplay:10.37,2013-05-13 07:47:00,
2013-05-13 02:52:00,35.2,21.1,29.15,NE,45,5.8,5.8,56,0.00,CLR,,0.00,WeatherDisplay:10.37,2013-05-13 07:52:00,
2013-05-13 02:57:00,35.1,21.3,29.15,North,0,3.5,3.5,57,0.00,CLR,,0.00,WeatherDisplay:10.37,2013-05-13 07:57:00,
2013-05-13 03:02:00,34.9,21.2,29.15,NE,45,3.5,3.5,57,0.00,CLR,,0.00,WeatherDisplay:10.37,2013-05-13 08:02:00,
2013-05-13 03:07:00,34.9,21.2,29.15,NE,45,3.5,3.5,57,0.00,CLR,,0.00,WeatherDisplay:10.37,2013-05-13 08:07:00,
2013-05-13 03:12:00,34.5,22.4,29.15,NE,45,3.5,3.5,61,0.00,CLR,,0.00,WeatherDisplay:10.37,2013-05-13 08:12:00,
2013-05-13 03:17:00,34.5,22.4,29.15,North,0,3.5,3.5,61,0.00,CLR,,0.00,WeatherDisplay:10.37,2013-05-13 08:17:00,
2013-05-13 03:22:00,34.3,22.3,29.15,NE,45,2.3,0.0,61,0.00,CLR,,0.00,WeatherDisplay:10.37,2013-05-13 08:22:00,
2013-05-13 03:27:00,34.2,22.9,29.15,North,0,2.3,2.3,63,0.00,CLR,,0.00,WeatherDisplay:10.37,2013-05-13 08:27:00,
2013-05-13 03:32:00,33.8,22.1,29.15,NE,45,0.7,0.0,62,0.00,CLR,,0.00,WeatherDisplay:10.37,2013-05-13 08:32:00,
2013-05-13 03:37:00,33.6,21.6,29.15,NE,45,2.3,2.3,61,0.00,CLR,,0.00,WeatherDisplay:10.37,2013-05-13 08:37:00,
2013-05-13 03:42:00,33.6,21.2,29.15,NE,45,3.5,3.5,60,0.00,CLR,,0.00,WeatherDisplay:10.37,2013-05-13 08:42:00,
2013-05-13 03:47:00,33.8,21.0,29.15,NE,45,3.5,3.5,59,0.00,CLR,,0.00,WeatherDisplay:10.37,2013-05-13 08:47:00,
2013-05-13 03:52:00,33.8,21.0,29.15,NE,45,3.5,3.5,59,0.00,CLR,,0.00,WeatherDisplay:10.37,2013-05-13 08:52:00,
2013-05-13 03:57:00,33.6,20.4,29.15,NE,45,3.5,3.5,58,0.00,CLR,,0.00,WeatherDisplay:10.37,2013-05-13 08:57:00,
2013-05-13 04:02:00,33.8,20.2,29.15,NE,45,3.5,3.5,57,0.00,CLR,,0.00,WeatherDisplay:10.37,2013-05-13 09:02:00,
2013-05-13 04:07:00,33.8,20.2,29.15,NE,45,3.5,3.5,57,0.00,CLR,,0.00,WeatherDisplay:10.37,2013-05-13 09:07:00,
2013-05-13 04:12:00,33.8,20.6,29.15,East,90,3.5,3.5,58,0.00,CLR,,0.00,WeatherDisplay:10.37,2013-05-13 09:12:00,
2013-05-13 04:17:00,33.6,20.4,29.15,East,90,2.3,2.3,58,0.00,CLR,,0.00,WeatherDisplay:10.37,2013-05-13 09:17:00,
2013-05-13 04:22:00,33.8,20.6,29.15,East,90,2.3,0.0,58,0.00,CLR,,0.00,WeatherDisplay:10.37,2013-05-13 09:22:00,
2013-05-13 04:27:00,33.8,20.2,29.15,North,0,2.3,2.3,57,0.00,CLR,,0.00,WeatherDisplay:10.37,2013-05-13 09:27:00,
2013-05-13 04:32:00,33.6,20.4,29.15,North,0,2.3,2.3,58,0.00,CLR,,0.00,WeatherDisplay:10.37,2013-05-13 09:32:00,
2013-05-13 04:37:00,33.1,20.7,29.15,North,0,2.3,2.3,60,0.00,CLR,,0.00,WeatherDisplay:10.37,2013-05-13 09:37:00,
2013-05-13 04:42:00,32.4,20.8,29.15,NE,45,2.3,2.3,62,0.00,CLR,,0.00,WeatherDisplay:10.37,2013-05-13 09:42:00,
2013-05-13 04:47:00,32.0,20.4,29.16,NW,315,2.3,2.3,62,0.00,CLR,,0.00,WeatherDisplay:10.37,2013-05-13 09:47:00,
2013-05-13 04:52:00,32.0,20.4,29.15,North,0,1.1,0.0,62,0.00,CLR,,0.00,WeatherDisplay:10.37,2013-05-13 09:52:00,
2013-05-13 04:57:00,31.8,21.0,29.15,NE,45,1.1,1.1,64,0.00,CLR,,0.00,WeatherDisplay:10.37,2013-05-13 09:57:00,
2013-05-13 05:02:00,31.6,20.5,29.16,East,90,1.1,1.1,63,0.00,CLR,,0.00,WeatherDisplay:10.37,2013-05-13 10:02:00,
2013-05-13 05:07:00,31.6,20.5,29.16,East,90,1.6,1.6,63,0.00,CLR,,0.00,WeatherDisplay:10.37,2013-05-13 10:07:00,
2013-05-13 05:12:00,32.5,21.0,29.16,NE,45,3.5,3.5,62,0.00,CLR,,0.00,WeatherDisplay:10.37,2013-05-13 10:12:00,
2013-05-13 05:17:00,32.7,21.1,29.16,NE,45,3.5,3.5,62,0.00,CLR,,0.00,WeatherDisplay:10.37,2013-05-13 10:17:00,
2013-05-13 05:22:00,32.9,20.9,29.16,NE,45,2.3,2.3,61,0.00,CLR,,0.00,WeatherDisplay:10.37,2013-05-13 10:22:00,
2013-05-13 05:27:00,32.9,20.9,29.16,NE,45,2.3,2.3,61,0.00,CLR,,0.00,WeatherDisplay:10.37,2013-05-13 10:27:00,
2013-05-13 05:32:00,32.5,21.0,29.16,NE,45,2.3,2.3,62,0.00,CLR,,0.00,WeatherDisplay:10.37,2013-05-13 10:32:00,
2013-05-13 05:37:00,32.5,21.3,29.15,East,90,3.5,3.5,63,0.00,CLR,,0.00,WeatherDisplay:10.37,2013-05-13 10:37:00,
2013-05-13 05:42:00,32.5,21.3,29.16,East,90,3.5,3.5,63,0.00,CLR,,0.00,WeatherDisplay:10.37,2013-05-13 10:42:00,
2013-05-13 05:47:00,32.7,21.5,29.16,NE,45,3.5,3.5,63,0.00,CLR,,0.00,WeatherDisplay:10.37,2013-05-13 10:47:00,
2013-05-13 05:52:00,32.7,21.5,29.16,NE,45,3.5,3.5,63,0.00,CLR,,0.00,WeatherDisplay:10.37,2013-05-13 10:52:00,
2013-05-13 05:57:00,32.5,21.7,29.16,NE,45,3.5,3.5,64,0.00,CLR,,0.00,WeatherDisplay:10.37,2013-05-13 10:57:00,
2013-05-13 06:02:00,32.5,21.3,29.16,NE,45,3.5,3.5,63,0.00,CLR,,0.00,WeatherDisplay:10.37,2013-05-13 11:02:00,
2013-05-13 06:07:00,32.7,21.9,29.16,NE,45,3.5,3.5,64,0.00,CLR,,0.00,WeatherDisplay:10.37,2013-05-13 11:07:00,
2013-05-13 06:12:00,32.7,21.9,29.16,NE,45,2.3,2.3,64,0.00,CLR,,0.00,WeatherDisplay:10.37,2013-05-13 11:12:00,
2013-05-13 06:17:00,32.7,21.9,29.16,NE,45,3.5,3.5,64,0.00,CLR,,0.00,WeatherDisplay:10.37,2013-05-13 11:17:00,
2013-05-13 06:22:00,33.8,22.5,29.16,NE,45,3.5,3.5,63,0.00,CLR,,0.00,WeatherDisplay:10.37,2013-05-13 11:22:00,
2013-05-13 06:27:00,35.2,22.7,29.16,NE,45,2.2,2.2,60,0.00,CLR,,0.00,WeatherDisplay:10.37,2013-05-13 11:27:00,
2013-05-13 06:32:00,36.0,22.6,29.16,NE,45,3.5,3.5,58,0.00,CLR,,0.00,WeatherDisplay:10.37,2013-05-13 11:32:00,
2013-05-13 06:37:00,37.0,23.6,29.16,NE,45,1.1,1.1,58,0.00,CLR,,0.00,WeatherDisplay:10.37,2013-05-13 11:37:00,
2013-05-13 06:42:00,38.1,23.4,29.16,NE,45,3.5,3.5,55,0.00,CLR,,0.00,WeatherDisplay:10.37,2013-05-13 11:42:00,
2013-05-13 06:47:00,38.5,23.3,29.16,SE,135,3.5,3.5,54,0.00,CLR,,0.00,WeatherDisplay:10.37,2013-05-13 11:47:00,
2013-05-13 06:52:00,39.4,23.7,29.16,NE,45,3.5,3.5,53,0.00,CLR,,0.00,WeatherDisplay:10.37,2013-05-13 11:52:00,
2013-05-13 06:57:00,39.7,23.5,29.16,East,90,4.6,4.6,52,0.00,CLR,,0.00,WeatherDisplay:10.37,2013-05-13 11:57:00,
2013-05-13 07:02:00,39.6,22.9,29.16,SE,135,4.6,4.6,51,0.00,CLR,,0.00,WeatherDisplay:10.37,2013-05-13 12:02:00,
2013-05-13 07:07:00,39.9,23.2,29.16,East,90,3.5,3.5,51,0.00,CLR,,0.00,WeatherDisplay:10.37,2013-05-13 12:07:00,
2013-05-13 07:12:00,40.5,23.7,29.16,SE,135,5.8,5.8,51,0.00,CLR,,0.00,WeatherDisplay:10.37,2013-05-13 12:12:00,
2013-05-13 07:17:00,41.0,24.2,29.17,SE,135,4.6,4.6,51,0.00,CLR,,0.00,WeatherDisplay:10.37,2013-05-13 12:17:00,
2013-05-13 07:22:00,41.5,25.7,29.17,SE,135,5.8,5.8,53,0.00,CLR,,0.00,WeatherDisplay:10.37,2013-05-13 12:22:00,
2013-05-13 07:27:00,41.2,26.2,29.18,East,90,5.8,5.8,55,0.00,CLR,,0.00,WeatherDisplay:10.37,2013-05-13 12:27:00,
2013-05-13 07:32:00,41.2,25.8,29.17,SE,135,5.8,5.8,54,0.00,CLR,,0.00,WeatherDisplay:10.37,2013-05-13 12:32:00,
2013-05-13 07:37:00,41.7,26.3,29.18,SE,135,5.8,5.8,54,0.00,CLR,,0.00,WeatherDisplay:10.37,2013-05-13 12:37:00,
2013-05-13 07:42:00,42.1,27.1,29.18,SE,135,6.9,6.9,55,0.00,CLR,,0.00,WeatherDisplay:10.37,2013-05-13 12:42:00,
2013-05-13 07:47:00,42.3,26.8,29.18,SE,135,4.6,4.6,54,0.00,CLR,,0.00,WeatherDisplay:10.37,2013-05-13 12:47:00,
2013-05-13 07:52:00,43.0,26.5,29.18,SE,135,5.8,5.8,52,0.00,CLR,,0.00,WeatherDisplay:10.37,2013-05-13 12:52:00,
2013-05-13 07:57:00,43.9,26.4,29.18,SE,135,5.8,5.8,50,0.00,CLR,,0.00,WeatherDisplay:10.37,2013-05-13 12:57:00,
2013-05-13 08:02:00,44.1,26.6,29.18,South,180,4.6,4.6,50,0.00,CLR,,0.00,WeatherDisplay:10.37,2013-05-13 13:02:00,
2013-05-13 08:07:00,43.7,26.3,29.18,SE,135,5.8,5.8,50,0.00,CLR,,0.00,WeatherDisplay:10.37,2013-05-13 13:07:00,
2013-05-13 08:12:00,43.5,26.1,29.18,SE,135,5.8,5.8,50,0.00,CLR,,0.00,WeatherDisplay:10.37,2013-05-13 13:12:00,
2013-05-13 08:17:00,43.7,25.3,29.18,South,180,5.8,5.8,48,0.00,CLR,,0.00,WeatherDisplay:10.37,2013-05-13 13:17:00,
2013-05-13 08:22:00,44.1,26.1,29.18,SE,135,3.5,3.8,49,0.00,CLR,,0.00,WeatherDisplay:10.37,2013-05-13 13:22:00,
2013-05-13 08:27:00,44.6,26.1,29.18,SE,135,5.8,5.8,48,0.00,CLR,,0.00,WeatherDisplay:10.37,2013-05-13 13:27:00,
2013-05-13 08:32:00,44.4,25.4,29.18,SE,135,6.9,6.9,47,0.00,CLR,,0.00,WeatherDisplay:10.37,2013-05-13 13:32:00,
2013-05-13 08:37:00,44.1,25.6,29.18,SSE,158,8.1,8.1,48,0.00,CLR,,0.00,WeatherDisplay:10.37,2013-05-13 13:37:00,
2013-05-13 08:42:00,45.3,27.8,29.17,SE,135,5.8,5.8,50,0.00,CLR,,0.00,WeatherDisplay:10.37,2013-05-13 13:42:00,
2013-05-13 08:47:00,45.5,27.4,29.17,South,180,6.9,6.9,49,0.00,CLR,,0.00,WeatherDisplay:10.37,2013-05-13 13:47:00,
2013-05-13 08:52:00,46.6,27.4,29.17,SE,135,5.8,5.8,47,0.00,CLR,,0.00,WeatherDisplay:10.37,2013-05-13 13:52:00,
2013-05-13 08:57:00,46.4,25.6,29.17,South,180,10.4,10.4,44,0.00,CLR,,0.00,WeatherDisplay:10.37,2013-05-13 13:57:00,
2013-05-13 09:02:00,46.4,23.9,29.17,South,180,11.5,11.5,41,0.00,CLR,,0.00,WeatherDisplay:10.37,2013-05-13 14:02:00,
2013-05-13 09:07:00,46.6,22.9,29.17,South,180,11.4,11.4,39,0.00,CLR,,0.00,WeatherDisplay:10.37,2013-05-13 14:07:00,
2013-05-13 09:12:00,47.1,24.0,29.16,SE,135,12.7,12.7,40,0.00,CLR,,0.00,WeatherDisplay:10.37,2013-05-13 14:12:00,
2013-05-13 09:17:00,47.3,24.2,29.16,SE,135,11.5,11.5,40,0.00,CLR,,0.00,WeatherDisplay:10.37,2013-05-13 14:17:00,
2013-05-13 09:22:00,47.7,22.6,29.16,SSE,158,12.7,12.7,37,0.00,CLR,,0.00,WeatherDisplay:10.37,2013-05-13 14:22:00,
2013-05-13 09:27:00,47.8,24.0,29.16,South,180,10.4,10.4,39,0.00,CLR,,0.00,WeatherDisplay:10.37,2013-05-13 14:27:00,
2013-05-13 09:32:00,48.2,23.7,29.16,SE,135,13.8,13.8,38,0.00,CLR,,0.00,WeatherDisplay:10.37,2013-05-13 14:32:00,
2013-05-13 09:37:00,48.6,25.3,29.16,SE,135,10.4,10.4,40,0.00,CLR,,0.00,WeatherDisplay:10.37,2013-05-13 14:37:00,
2013-05-13 09:42:00,48.9,23.1,29.16,South,180,11.5,11.5,36,0.00,CLR,,0.00,WeatherDisplay:10.37,2013-05-13 14:42:00,
2013-05-13 09:47:00,48.9,26.2,29.15,SE,135,11.5,11.5,41,0.00,CLR,,0.00,WeatherDisplay:10.37,2013-05-13 14:47:00,
2013-05-13 09:52:00,49.1,23.9,29.15,SE,135,11.5,11.5,37,0.00,CLR,,0.00,WeatherDisplay:10.37,2013-05-13 14:52:00,
2013-05-13 09:57:00,49.8,25.8,29.15,SE,135,10.4,10.4,39,0.00,CLR,,0.00,WeatherDisplay:10.37,2013-05-13 14:57:00,
2013-05-13 10:02:00,49.6,25.7,29.15,SE,135,12.7,12.7,39,0.00,CLR,,0.00,WeatherDisplay:10.37,2013-05-13 15:02:00,
2013-05-13 10:07:00,50.0,26.6,29.15,SSE,158,10.4,10.4,40,0.00,CLR,,0.00,WeatherDisplay:10.37,2013-05-13 15:07:00,
2013-05-13 10:12:00,50.0,26.6,29.14,SE,135,10.4,10.4,40,0.00,CLR,,0.00,WeatherDisplay:10.37,2013-05-13 15:12:00,
2013-05-13 10:17:00,50.7,25.4,29.14,South,180,8.1,8.1,37,0.00,CLR,,0.00,WeatherDisplay:10.37,2013-05-13 15:17:00,
2013-05-13 10:22:00,50.7,26.6,29.14,SE,135,10.4,10.4,39,0.00,CLR,,0.00,WeatherDisplay:10.37,2013-05-13 15:22:00,
2013-05-13 10:27:00,51.4,27.3,29.14,SE,135,8.1,8.1,39,0.00,CLR,,0.00,WeatherDisplay:10.37,2013-05-13 15:27:00,
2013-05-13 10:32:00,51.4,26.6,29.14,SE,135,8.1,8.1,38,0.00,CLR,,0.00,WeatherDisplay:10.37,2013-05-13 15:32:00,
2013-05-13 10:37:00,51.8,29.4,29.14,SE,135,8.1,8.1,42,0.00,CLR,,0.00,WeatherDisplay:10.37,2013-05-13 15:37:00,
2013-05-13 10:43:00,52.2,27.9,29.13,SE,135,9.2,9.2,39,0.00,CLR,,0.00,WeatherDisplay:10.37,2013-05-13 15:43:00,
2013-05-13 10:48:00,52.7,27.1,29.13,SE,135,6.9,6.9,37,0.00,CLR,,0.00,WeatherDisplay:10.37,2013-05-13 15:48:00,
2013-05-13 10:53:00,53.2,26.9,29.13,SE,135,5.8,5.8,36,0.00,CLR,,0.00,WeatherDisplay:10.37,2013-05-13 15:53:00,
2013-05-13 10:58:00,53.4,27.1,29.14,SE,135,6.9,6.9,36,0.00,CLR,,0.00,WeatherDisplay:10.37,2013-05-13 15:58:00,
2013-05-13 11:03:00,53.4,29.1,29.12,SE,135,5.8,5.8,39,0.00,CLR,,0.00,WeatherDisplay:10.37,2013-05-13 16:03:00,
2013-05-13 11:08:00,54.0,27.6,29.12,SE,135,8.1,8.1,36,0.00,CLR,,0.00,WeatherDisplay:10.37,2013-05-13 16:08:00,
2013-05-13 11:13:00,54.1,27.7,29.11,SE,135,5.8,5.8,36,0.00,CLR,,0.00,WeatherDisplay:10.37,2013-05-13 16:13:00,
2013-05-13 11:18:00,54.3,28.6,29.12,SE,135,6.9,6.9,37,0.00,CLR,,0.00,WeatherDisplay:10.37,2013-05-13 16:18:00,
2013-05-13 11:23:00,54.3,28.6,29.11,SE,135,6.9,6.9,37,0.00,CLR,,0.00,WeatherDisplay:10.37,2013-05-13 16:23:00,
2013-05-13 11:28:00,54.9,28.4,29.11,SE,135,9.2,9.2,36,0.00,CLR,,0.00,WeatherDisplay:10.37,2013-05-13 16:28:00,
2013-05-13 11:30:00,56.5,40.0,28.80,SE,143,9.0,12.0,54,0.00,CLR,,0.00,WeatherDisplay:10.37,2013-05-13 16:30:00,
2013-05-13 11:33:00,55.0,29.2,29.11,SE,135,8.1,8.1,37,0.00,CLR,,0.00,WeatherDisplay:10.37,2013-05-13 16:33:00,
2013-05-13 11:35:00,56.5,40.0,28.80,SE,140,9.0,12.0,54,0.00,CLR,,0.00,WeatherDisplay:10.37,2013-05-13 16:35:00,
2013-05-13 11:38:00,55.8,24.8,29.11,SE,135,8.1,8.1,30,0.00,CLR,,0.00,WeatherDisplay:10.37,2013-05-13 16:38:00,
2013-05-13 11:40:00,56.5,40.0,28.80,SE,135,9.0,12.0,54,0.00,CLR,,0.00,WeatherDisplay:10.37,2013-05-13 16:40:00,
2013-05-13 11:43:00,55.9,25.7,29.10,SE,135,6.9,6.9,31,0.00,CLR,,0.00,WeatherDisplay:10.37,2013-05-13 16:43:00,
2013-05-13 11:45:00,56.5,40.0,28.80,SE,135,9.0,12.0,54,0.00,CLR,,0.00,WeatherDisplay:10.37,2013-05-13 16:45:00,
2013-05-13 11:48:00,56.1,25.9,29.10,SE,135,11.5,11.5,31,0.00,CLR,,0.00,WeatherDisplay:10.37,2013-05-13 16:48:00,
2013-05-13 11:50:00,56.5,40.0,28.80,SE,135,9.0,12.0,54,0.00,CLR,,0.00,WeatherDisplay:10.37,2013-05-13 16:50:00,
2013-05-13 11:53:00,55.8,25.5,29.10,SE,135,10.4,10.4,31,0.00,CLR,,0.00,WeatherDisplay:10.37,2013-05-13 16:53:00,
2013-05-13 11:55:00,56.5,40.0,28.80,SE,135,9.0,12.0,54,0.00,CLR,,0.00,WeatherDisplay:10.37,2013-05-13 16:55:00,
2013-05-13 11:58:00,56.3,26.8,29.10,SE,135,8.1,8.1,32,0.00,CLR,,0.00,WeatherDisplay:10.37,2013-05-13 16:58:00,
2013-05-13 12:00:00,56.1,40.2,28.78,SE,135,14.0,16.0,55,0.00,CLR,,0.00,WeatherDisplay:10.37,2013-05-13 17:00:00,
2013-05-13 12:03:00,56.5,28.4,29.09,SE,135,5.8,5.8,34,0.00,CLR,,0.00,WeatherDisplay:10.37,2013-05-13 17:03:00,
2013-05-13 12:05:00,56.1,40.2,28.78,SE,135,14.0,16.0,55,0.00,CLR,,0.00,WeatherDisplay:10.37,2013-05-13 17:05:00,
2013-05-13 12:08:00,56.7,26.3,29.09,SE,135,6.9,6.9,31,0.00,CLR,,0.00,WeatherDisplay:10.37,2013-05-13 17:08:00,
2013-05-13 12:10:00,56.1,40.2,28.78,SE,135,14.0,16.0,55,0.00,CLR,,0.00,WeatherDisplay:10.37,2013-05-13 17:10:00,
2013-05-13 12:13:00,56.7,26.3,29.09,SE,135,6.9,6.9,31,0.00,CLR,,0.00,WeatherDisplay:10.37,2013-05-13 17:13:00,
2013-05-13 12:15:00,56.1,40.2,28.78,SE,135,14.0,16.0,55,0.00,CLR,,0.00,WeatherDisplay:10.37,2013-05-13 17:15:00,
2013-05-13 12:18:00,59.5,28.8,29.08,SE,135,8.1,8.1,31,0.00,CLR,,0.00,WeatherDisplay:10.37,2013-05-13 17:18:00,
2013-05-13 12:20:00,56.1,40.2,28.78,SE,135,14.0,16.0,55,0.00,CLR,,0.00,WeatherDisplay:10.37,2013-05-13 17:20:00,
2013-05-13 12:23:00,59.4,27.9,29.08,SE,135,13.8,13.8,30,0.00,CLR,,0.00,WeatherDisplay:10.37,2013-05-13 17:23:00,
2013-05-13 12:25:00,56.1,40.2,28.78,SE,135,14.0,16.0,55,0.00,CLR,,0.00,WeatherDisplay:10.37,2013-05-13 17:25:00,
2013-05-13 12:28:00,59.4,30.2,29.08,SE,135,9.2,9.2,33,0.00,CLR,,0.00,WeatherDisplay:10.37,2013-05-13 17:28:00,
2013-05-13 12:30:00,55.6,41.9,28.77,SE,135,9.0,16.0,60,0.00,CLR,,0.00,WeatherDisplay:10.37,2013-05-13 17:30:00,
2013-05-13 12:33:00,59.7,29.0,29.07,SE,135,8.1,8.1,31,0.00,CLR,,0.00,WeatherDisplay:10.37,2013-05-13 17:33:00,
2013-05-13 12:35:00,55.6,41.9,28.77,SE,135,9.0,11.0,60,0.00,CLR,,0.00,WeatherDisplay:10.37,2013-05-13 17:35:00,
2013-05-13 12:38:00,59.9,32.9,29.07,SE,135,8.3,8.3,36,0.00,CLR,,0.00,WeatherDisplay:10.37,2013-05-13 17:38:00,
2013-05-13 12:40:00,55.6,41.9,28.77,SE,135,9.0,11.0,60,0.00,CLR,,0.00,WeatherDisplay:10.37,2013-05-13 17:40:00,
2013-05-13 12:43:00,60.3,30.3,29.07,SE,135,11.5,11.5,32,0.00,CLR,,0.00,WeatherDisplay:10.37,2013-05-13 17:43:00,
2013-05-13 12:45:00,55.6,41.9,28.77,SE,135,9.0,11.0,60,0.00,CLR,,0.00,WeatherDisplay:10.37,2013-05-13 17:45:00,
2013-05-13 12:48:00,60.3,33.2,29.06,SE,135,10.4,10.4,36,0.00,CLR,,0.00,WeatherDisplay:10.37,2013-05-13 17:48:00,
2013-05-13 12:50:00,55.6,41.9,28.77,SE,135,9.0,11.0,60,0.00,CLR,,0.00,WeatherDisplay:10.37,2013-05-13 17:50:00,
2013-05-13 12:53:00,58.3,33.4,29.06,South,180,10.4,10.4,39,0.00,CLR,,0.00,WeatherDisplay:10.37,2013-05-13 17:53:00,
2013-05-13 12:55:00,55.6,41.9,28.77,SE,135,9.0,11.0,60,0.00,CLR,,0.00,WeatherDisplay:10.37,2013-05-13 17:55:00,
2013-05-13 12:58:00,58.1,32.6,29.06,SE,135,10.4,10.4,38,0.00,CLR,,0.00,WeatherDisplay:10.37,2013-05-13 17:58:00,
2013-05-13 13:00:00,55.4,42.2,28.76,SE,135,8.0,11.0,61,0.00,CLR,,0.00,WeatherDisplay:10.37,2013-05-13 18:00:00,
2013-05-13 13:03:00,60.3,31.8,29.05,SE,135,8.1,8.1,34,0.00,CLR,,0.00,WeatherDisplay:10.37,2013-05-13 18:03:00,
2013-05-13 13:05:00,55.4,42.2,28.76,SE,135,8.0,10.0,61,0.00,CLR,,0.00,WeatherDisplay:10.37,2013-05-13 18:05:00,
2013-05-13 13:08:00,59.2,26.1,29.05,SE,135,10.4,10.4,28,0.00,CLR,,0.00,WeatherDisplay:10.37,2013-05-13 18:08:00,
2013-05-13 13:10:00,55.4,42.2,28.76,SE,135,8.0,10.0,61,0.00,CLR,,0.00,WeatherDisplay:10.37,2013-05-13 18:10:00,
2013-05-13 13:13:00,59.0,29.2,29.06,South,180,12.7,12.7,32,0.00,CLR,,0.00,WeatherDisplay:10.37,2013-05-13 18:13:00,
2013-05-13 13:15:00,55.4,42.2,28.76,SE,135,8.0,10.0,61,0.00,CLR,,0.00,WeatherDisplay:10.37,2013-05-13 18:15:00,
2013-05-13 13:18:00,59.7,29.8,29.05,South,180,8.1,8.1,32,0.00,CLR,,0.00,WeatherDisplay:10.37,2013-05-13 18:18:00,
2013-05-13 13:20:00,55.4,42.2,28.76,SE,135,8.0,10.0,61,0.00,CLR,,0.00,WeatherDisplay:10.37,2013-05-13 18:20:00,
2013-05-13 13:23:00,59.2,24.3,29.04,South,180,12.7,12.7,26,0.00,CLR,,0.00,WeatherDisplay:10.37,2013-05-13 18:23:00,
2013-05-13 13:25:00,55.4,42.2,28.76,SE,135,8.0,10.0,61,0.00,CLR,,0.00,WeatherDisplay:10.37,2013-05-13 18:25:00,
2013-05-13 13:28:00,59.2,31.5,29.04,SE,135,11.5,11.5,35,0.00,CLR,,0.00,WeatherDisplay:10.37,2013-05-13 18:28:00,
2013-05-13 13:30:00,54.3,41.1,28.74,SE,135,6.0,10.0,61,0.00,CLR,,0.00,WeatherDisplay:10.37,2013-05-13 18:30:00,
2013-05-13 13:33:00,59.4,35.6,29.03,SE,135,8.1,8.1,41,0.00,CLR,,0.00,WeatherDisplay:10.37,2013-05-13 18:33:00,
2013-05-13 13:35:00,54.3,41.1,28.74,SE,135,6.0,7.0,61,0.00,CLR,,0.00,WeatherDisplay:10.37,2013-05-13 18:35:00,
2013-05-13 13:38:00,60.3,26.1,29.03,South,180,12.7,12.7,27,0.00,CLR,,0.00,WeatherDisplay:10.37,2013-05-13 18:38:00,
2013-05-13 13:40:00,54.3,41.1,28.74,SE,135,6.0,7.0,61,0.00,CLR,,0.00,WeatherDisplay:10.37,2013-05-13 18:40:00,
2013-05-13 13:43:00,60.6,25.5,29.03,South,180,13.8,13.8,26,0.00,CLR,,0.00,WeatherDisplay:10.37,2013-05-13 18:43:00,
2013-05-13 13:45:00,54.3,41.1,28.74,SE,135,6.0,7.0,61,0.00,CLR,,0.00,WeatherDisplay:10.37,2013-05-13 18:45:00,
2013-05-13 13:48:00,60.8,28.3,29.02,South,180,12.7,12.7,29,0.00,CLR,,0.00,WeatherDisplay:10.37,2013-05-13 18:48:00,
2013-05-13 13:50:00,54.3,41.1,28.74,SE,135,6.0,7.0,61,0.00,CLR,,0.00,WeatherDisplay:10.37,2013-05-13 18:50:00,
2013-05-13 13:53:00,61.2,25.0,29.02,South,180,10.4,10.4,25,0.00,CLR,,0.00,WeatherDisplay:10.37,2013-05-13 18:53:00,
2013-05-13 13:55:00,54.3,41.1,28.74,SE,135,6.0,7.0,61,0.00,CLR,,0.00,WeatherDisplay:10.37,2013-05-13 18:55:00,
2013-05-13 13:58:00,60.3,27.8,29.03,SE,135,12.7,12.7,29,0.00,CLR,,0.00,WeatherDisplay:10.37,2013-05-13 18:58:00,
2013-05-13 14:00:00,53.6,41.3,28.73,SE,135,5.0,7.0,63,0.00,CLR,,0.00,WeatherDisplay:10.37,2013-05-13 19:00:00,
2013-05-13 14:03:00,60.8,24.7,29.02,SE,135,15.0,15.0,25,0.00,CLR,,0.00,WeatherDisplay:10.37,2013-05-13 19:03:00,
2013-05-13 14:05:00,53.6,41.3,28.73,SE,135,5.0,6.0,63,0.00,CLR,,0.00,WeatherDisplay:10.37,2013-05-13 19:05:00,
2013-05-13 14:08:00,60.8,24.7,29.02,South,180,17.3,17.3,25,0.00,CLR,,0.00,WeatherDisplay:10.37,2013-05-13 19:08:00,
2013-05-13 14:10:00,53.6,41.3,28.73,SE,135,5.0,6.0,63,0.00,CLR,,0.00,WeatherDisplay:10.37,2013-05-13 19:10:00,
2013-05-13 14:13:00,60.8,23.7,29.02,South,180,20.7,20.7,24,0.00,CLR,,0.00,WeatherDisplay:10.37,2013-05-13 19:13:00,
2013-05-13 14:15:00,53.6,41.3,28.73,SE,135,5.0,6.0,63,0.00,CLR,,0.00,WeatherDisplay:10.37,2013-05-13 19:15:00,
2013-05-13 14:18:00,60.8,23.7,29.02,South,180,12.7,12.7,24,0.00,CLR,,0.00,WeatherDisplay:10.37,2013-05-13 19:18:00,
2013-05-13 14:20:00,53.6,41.3,28.73,SE,135,5.0,6.0,63,0.00,CLR,,0.00,WeatherDisplay:10.37,2013-05-13 19:20:00,
2013-05-13 14:23:00,61.0,25.8,29.02,South,180,12.7,12.7,26,0.00,CLR,,0.00,WeatherDisplay:10.37,2013-05-13 19:23:00,
2013-05-13 14:25:00,53.6,41.3,28.73,SE,135,5.0,6.0,63,0.00,CLR,,0.00,WeatherDisplay:10.37,2013-05-13 19:25:00,
2013-05-13 14:28:00,60.4,26.3,29.02,SSE,158,15.0,15.0,27,0.00,CLR,,0.00,WeatherDisplay:10.37,2013-05-13 19:28:00,
2013-05-13 14:30:00,53.4,41.9,28.72,SE,135,6.0,7.0,65,0.00,CLR,,0.00,WeatherDisplay:10.37,2013-05-13 19:30:00,
2013-05-13 14:33:00,60.8,24.7,29.01,SE,135,13.8,13.8,25,0.00,CLR,,0.00,WeatherDisplay:10.37,2013-05-13 19:33:00,
2013-05-13 14:35:00,53.4,41.9,28.72,SE,135,6.0,7.0,65,0.00,CLR,,0.00,WeatherDisplay:10.37,2013-05-13 19:35:00,
2013-05-13 14:38:00,60.8,26.6,29.02,South,180,11.5,11.5,27,0.00,CLR,,0.00,WeatherDisplay:10.37,2013-05-13 19:38:00,
2013-05-13 14:40:00,53.4,41.9,28.72,SE,135,6.0,7.0,65,0.00,CLR,,0.00,WeatherDisplay:10.37,2013-05-13 19:40:00,
2013-05-13 14:43:00,60.8,23.7,29.01,South,180,16.1,16.1,24,0.00,CLR,,0.00,WeatherDisplay:10.37,2013-05-13 19:43:00,
2013-05-13 14:45:00,53.4,41.9,28.72,SE,135,6.0,7.0,65,0.00,CLR,,0.00,WeatherDisplay:10.37,2013-05-13 19:45:00,
2013-05-13 14:48:00,60.6,26.4,29.01,South,180,17.3,17.3,27,0.00,CLR,,0.00,WeatherDisplay:10.37,2013-05-13 19:48:00,
2013-05-13 14:50:00,53.4,41.9,28.72,SE,135,6.0,7.0,65,0.00,CLR,,0.00,WeatherDisplay:10.37,2013-05-13 19:50:00,
2013-05-13 14:53:00,61.0,24.9,29.01,South,180,15.0,15.0,25,0.00,CLR,,0.00,WeatherDisplay:10.37,2013-05-13 19:53:00,
2013-05-13 14:55:00,53.4,41.9,28.72,SE,135,6.0,7.0,65,0.00,CLR,,0.00,WeatherDisplay:10.37,2013-05-13 19:55:00,
2013-05-13 14:58:00,61.2,26.9,29.01,SE,135,10.4,10.4,27,0.00,CLR,,0.00,WeatherDisplay:10.37,2013-05-13 19:58:00,
2013-05-13 15:00:00,52.7,40.0,28.71,SE,134,1.0,7.0,62,0.00,CLR,,0.00,WeatherDisplay:10.37,2013-05-13 20:00:00,
2013-05-13 15:03:00,60.8,28.3,29.00,South,180,13.8,13.8,29,0.00,CLR,,0.00,WeatherDisplay:10.37,2013-05-13 20:03:00,
2013-05-13 15:05:00,52.7,40.0,28.71,ESE,122,1.0,3.0,62,0.00,CLR,,0.00,WeatherDisplay:10.37,2013-05-13 20:05:00,
2013-05-13 15:08:00,60.8,26.6,29.00,South,180,17.3,17.3,27,0.00,CLR,,0.00,WeatherDisplay:10.37,2013-05-13 20:08:00,
2013-05-13 15:10:00,52.7,40.0,28.71,East,90,1.0,3.0,62,0.00,CLR,,0.00,WeatherDisplay:10.37,2013-05-13 20:10:00,
2013-05-13 15:13:00,60.6,31.3,29.00,SE,135,15.0,15.0,33,0.00,CLR,,0.00,WeatherDisplay:10.37,2013-05-13 20:13:00,
2013-05-13 15:15:00,52.7,40.0,28.71,East,90,1.0,3.0,62,0.00,CLR,,0.00,WeatherDisplay:10.37,2013-05-13 20:15:00,
2013-05-13 15:18:00,60.4,30.4,29.00,South,180,15.0,15.0,32,0.00,CLR,,0.00,WeatherDisplay:10.37,2013-05-13 20:18:00,
2013-05-13 15:20:00,52.7,40.0,28.71,East,90,1.0,3.0,62,0.00,CLR,,0.00,WeatherDisplay:10.37,2013-05-13 20:20:00,
2013-05-13 15:23:00,61.0,30.1,29.00,South,180,13.8,13.8,31,0.00,CLR,,0.00,WeatherDisplay:10.37,2013-05-13 20:23:00,
2013-05-13 15:25:00,52.7,40.0,28.71,East,90,1.0,3.0,62,0.00,CLR,,0.00,WeatherDisplay:10.37,2013-05-13 20:25:00,
2013-05-13 15:28:00,60.6,27.3,29.00,South,180,18.4,18.4,28,0.00,CLR,,0.00,WeatherDisplay:10.37,2013-05-13 20:28:00,
2013-05-13 15:30:00,52.2,41.1,28.71,East,94,1.0,3.0,66,0.00,CLR,,0.00,WeatherDisplay:10.37,2013-05-13 20:30:00,
2013-05-13 15:33:00,59.7,29.8,28.99,SW,225,25.3,25.3,32,0.00,CLR,,0.00,WeatherDisplay:10.37,2013-05-13 20:33:00,
2013-05-13 15:35:00,52.2,41.1,28.71,ESE,117,1.0,3.0,66,0.00,CLR,,0.00,WeatherDisplay:10.37,2013-05-13 20:35:00,
2013-05-13 15:38:00,58.8,31.2,28.99,SW,225,19.6,19.6,35,0.00,CLR,,0.00,WeatherDisplay:10.37,2013-05-13 20:38:00,
2013-05-13 15:40:00,52.2,41.1,28.71,SE,135,1.0,3.0,66,0.00,CLR,,0.00,WeatherDisplay:10.37,2013-05-13 20:40:00,
2013-05-13 15:43:00,59.9,35.5,28.99,South,180,16.1,16.1,40,0.00,CLR,,0.00,WeatherDisplay:10.37,2013-05-13 20:43:00,
2013-05-13 15:45:00,52.2,41.1,28.71,SE,135,1.0,3.0,66,0.00,CLR,,0.00,WeatherDisplay:10.37,2013-05-13 20:45:00,
2013-05-13 15:48:00,60.3,33.9,28.98,South,180,19.6,19.6,37,0.00,CLR,,0.00,WeatherDisplay:10.37,2013-05-13 20:48:00,
2013-05-13 15:50:00,52.2,41.1,28.71,SE,135,1.0,3.0,66,0.00,CLR,,0.00,WeatherDisplay:10.37,2013-05-13 20:50:00,
2013-05-13 15:53:00,60.3,37.1,28.99,South,180,12.7,12.7,42,0.00,CLR,,0.00,WeatherDisplay:10.37,2013-05-13 20:53:00,
2013-05-13 15:55:00,52.2,41.1,28.71,SE,135,1.0,3.0,66,0.00,CLR,,0.00,WeatherDisplay:10.37,2013-05-13 20:55:00,
2013-05-13 15:58:00,60.3,37.1,28.98,South,180,10.4,10.4,42,0.00,CLR,,0.00,WeatherDisplay:10.37,2013-05-13 20:58:00,
2013-05-13 16:00:00,50.0,39.1,28.71,SE,132,1.0,3.0,66,0.00,CLR,,0.00,WeatherDisplay:10.37,2013-05-13 21:00:00,
2013-05-13 16:03:00,60.3,37.1,28.97,South,180,16.1,16.1,42,0.00,CLR,,0.00,WeatherDisplay:10.37,2013-05-13 21:03:00,
2013-05-13 16:05:00,50.0,39.1,28.71,ESE,102,1.0,2.0,66,0.00,CLR,,0.00,WeatherDisplay:10.37,2013-05-13 21:05:00,
2013-05-13 16:08:00,60.4,36.0,28.97,South,180,15.0,15.0,40,0.00,CLR,,0.00,WeatherDisplay:10.37,2013-05-13 21:08:00,
2013-05-13 16:10:00,50.0,39.1,28.71,NE,45,1.0,2.0,66,0.00,CLR,,0.00,WeatherDisplay:10.37,2013-05-13 21:10:00,
2013-05-13 16:13:00,60.4,36.6,28.97,South,180,12.7,12.7,41,0.00,CLR,,0.00,WeatherDisplay:10.37,2013-05-13 21:13:00,
2013-05-13 16:15:00,50.0,39.1,28.71,NE,45,1.0,2.0,66,0.00,CLR,,0.00,WeatherDisplay:10.37,2013-05-13 21:15:00,
2013-05-13 16:18:00,58.5,36.0,28.96,South,180,12.7,12.7,43,0.00,CLR,,0.00,WeatherDisplay:10.37,2013-05-13 21:18:00,
2013-05-13 16:20:00,50.0,39.1,28.71,NE,45,1.0,2.0,66,0.00,CLR,,0.00,WeatherDisplay:10.37,2013-05-13 21:20:00,
2013-05-13 16:23:00,60.4,37.8,28.96,South,180,12.7,12.7,43,0.00,CLR,,0.00,WeatherDisplay:10.37,2013-05-13 21:23:00,
2013-05-13 16:25:00,50.0,39.1,28.71,NE,45,1.0,2.0,66,0.00,CLR,,0.00,WeatherDisplay:10.37,2013-05-13 21:25:00,
2013-05-13 16:28:00,60.4,37.8,28.96,South,180,13.8,13.8,43,0.00,CLR,,0.00,WeatherDisplay:10.37,2013-05-13 21:28:00,
2013-05-13 16:30:00,47.7,38.4,28.72,NE,45,0.0,2.0,70,0.00,CLR,,0.00,WeatherDisplay:10.37,2013-05-13 21:30:00,
2013-05-13 16:33:00,58.5,37.2,28.96,South,180,13.8,13.8,45,0.00,CLR,,0.00,WeatherDisplay:10.37,2013-05-13 21:33:00,
2013-05-13 16:35:00,47.7,38.4,28.72,NE,45,0.0,1.0,70,0.00,CLR,,0.00,WeatherDisplay:10.37,2013-05-13 21:35:00,
2013-05-13 16:38:00,60.3,37.7,28.96,South,180,15.0,15.0,43,0.00,CLR,,0.00,WeatherDisplay:10.37,2013-05-13 21:38:00,
2013-05-13 16:40:00,47.7,38.4,28.72,NE,45,0.0,1.0,70,0.00,CLR,,0.00,WeatherDisplay:10.37,2013-05-13 21:40:00,
2013-05-13 16:43:00,59.5,41.4,28.95,SE,135,15.0,15.0,51,0.00,CLR,,0.00,WeatherDisplay:10.37,2013-05-13 21:43:00,
2013-05-13 16:45:00,47.7,38.4,28.72,NE,45,0.0,1.0,70,0.00,CLR,,0.00,WeatherDisplay:10.37,2013-05-13 21:45:00,
2013-05-13 16:48:00,59.5,41.4,28.95,SE,135,13.8,13.8,51,0.00,CLR,,0.00,WeatherDisplay:10.37,2013-05-13 21:48:00,
2013-05-13 16:50:00,47.7,38.4,28.72,NE,45,0.0,1.0,70,0.00,CLR,,0.00,WeatherDisplay:10.37,2013-05-13 21:50:00,
2013-05-13 16:53:00,60.1,37.5,28.95,South,180,20.7,20.7,43,0.00,CLR,,0.00,WeatherDisplay:10.37,2013-05-13 21:53:00,
2013-05-13 16:55:00,47.7,38.4,28.72,NE,45,0.0,1.0,70,0.00,CLR,,0.00,WeatherDisplay:10.37,2013-05-13 21:55:00,
2013-05-13 16:58:00,60.4,37.2,28.94,South,180,20.7,20.7,42,0.00,CLR,,0.00,WeatherDisplay:10.37,2013-05-13 21:58:00,
2013-05-13 17:00:00,46.6,38.4,28.71,NE,48,1.0,2.0,73,0.00,CLR,,0.00,WeatherDisplay:10.37,2013-05-13 22:00:00,
2013-05-13 17:03:00,58.5,35.4,28.95,SE,135,17.3,17.3,42,0.00,CLR,,0.00,WeatherDisplay:10.37,2013-05-13 22:03:00,
2013-05-13 17:05:00,46.6,38.4,28.71,ENE,66,1.0,2.0,73,0.00,CLR,,0.00,WeatherDisplay:10.37,2013-05-13 22:05:00,
2013-05-13 17:08:00,60.1,40.3,28.94,South,180,12.7,12.7,48,0.00,CLR,,0.00,WeatherDisplay:10.37,2013-05-13 22:08:00,
2013-05-13 17:10:00,46.6,38.4,28.71,East,90,1.0,2.0,73,0.00,CLR,,0.00,WeatherDisplay:10.37,2013-05-13 22:10:00,
2013-05-13 17:13:00,60.1,39.8,28.94,South,180,20.7,20.7,47,0.00,CLR,,0.00,WeatherDisplay:10.37,2013-05-13 22:13:00,
2013-05-13 17:15:00,46.6,38.4,28.71,East,90,1.0,2.0,73,0.00,CLR,,0.00,WeatherDisplay:10.37,2013-05-13 22:15:00,
2013-05-13 17:18:00,60.3,38.2,28.94,SSE,158,18.4,18.4,44,0.00,CLR,,0.00,WeatherDisplay:10.37,2013-05-13 22:18:00,
2013-05-13 17:20:00,46.6,38.4,28.71,East,90,1.0,2.0,73,0.00,CLR,,0.00,WeatherDisplay:10.37,2013-05-13 22:20:00,
2013-05-13 17:23:00,60.6,38.0,28.94,South,180,19.6,19.6,43,0.00,CLR,,0.00,WeatherDisplay:10.37,2013-05-13 22:23:00,
2013-05-13 17:25:00,46.6,38.4,28.71,East,90,1.0,2.0,73,0.00,CLR,,0.00,WeatherDisplay:10.37,2013-05-13 22:25:00,
2013-05-13 17:28:00,61.0,39.5,28.94,South,180,15.0,15.0,45,0.00,CLR,,0.00,WeatherDisplay:10.37,2013-05-13 22:28:00,
2013-05-13 17:30:00,46.4,38.6,28.71,East,85,1.0,2.0,74,0.00,CLR,,0.00,WeatherDisplay:10.37,2013-05-13 22:30:00,
2013-05-13 17:33:00,59.2,37.8,28.94,South,180,13.8,13.8,45,0.00,CLR,,0.00,WeatherDisplay:10.37,2013-05-13 22:33:00,
2013-05-13 17:35:00,46.4,38.6,28.71,North,357,1.0,2.0,74,0.00,CLR,,0.00,WeatherDisplay:10.37,2013-05-13 22:35:00,
2013-05-13 17:38:00,59.2,37.3,28.94,South,180,15.0,15.0,44,0.00,CLR,,0.00,WeatherDisplay:10.37,2013-05-13 22:38:00,
2013-05-13 17:40:00,46.4,38.6,28.71,NW,315,1.0,2.0,74,0.00,CLR,,0.00,WeatherDisplay:10.37,2013-05-13 22:40:00,
2013-05-13 17:43:00,59.5,35.8,28.94,South,180,17.3,17.3,41,0.00,CLR,,0.00,WeatherDisplay:10.37,2013-05-13 22:43:00,
2013-05-13 17:45:00,46.4,38.6,28.71,NW,315,1.0,2.0,74,0.00,CLR,,0.00,WeatherDisplay:10.37,2013-05-13 22:45:00,
2013-05-13 17:48:00,59.7,38.3,28.94,South,180,15.0,15.0,45,0.00,CLR,,0.00,WeatherDisplay:10.37,2013-05-13 22:48:00,
2013-05-13 17:50:00,46.4,38.6,28.71,NW,315,1.0,2.0,74,0.00,CLR,,0.00,WeatherDisplay:10.37,2013-05-13 22:50:00,
2013-05-13 17:53:00,59.4,36.8,28.94,SSE,158,16.1,16.1,43,0.00,CLR,,0.00,WeatherDisplay:10.37,2013-05-13 22:53:00,
2013-05-13 17:55:00,46.4,38.6,28.71,NW,315,1.0,2.0,74,0.00,CLR,,0.00,WeatherDisplay:10.37,2013-05-13 22:55:00,
2013-05-13 17:58:00,59.2,37.8,28.94,South,180,17.3,17.3,45,0.00,CLR,,0.00,WeatherDisplay:10.37,2013-05-13 22:58:00,
2013-05-13 18:00:00,45.5,38.4,28.71,NW,321,1.0,2.0,76,0.00,CLR,,0.00,WeatherDisplay:10.37,2013-05-13 23:00:00,
2013-05-13 18:03:00,59.2,36.7,28.93,SSE,158,21.9,21.9,43,0.00,CLR,,0.00,WeatherDisplay:10.37,2013-05-13 23:03:00,
2013-05-13 18:05:00,45.5,38.4,28.71,North,11,1.0,2.0,76,0.00,CLR,,0.00,WeatherDisplay:10.37,2013-05-13 23:05:00,
2013-05-13 18:08:00,59.2,37.8,28.93,South,180,17.3,17.3,45,0.00,CLR,,0.00,WeatherDisplay:10.37,2013-05-13 23:08:00,
2013-05-13 18:10:00,45.5,38.4,28.71,NE,45,1.0,2.0,76,0.00,CLR,,0.00,WeatherDisplay:10.37,2013-05-13 23:10:00,
2013-05-13 18:13:00,59.2,37.3,28.93,South,180,17.3,17.3,44,0.00,CLR,,0.00,WeatherDisplay:10.37,2013-05-13 23:13:00,
2013-05-13 18:15:00,45.5,38.4,28.71,NE,45,1.0,2.0,76,0.00,CLR,,0.00,WeatherDisplay:10.37,2013-05-13 23:15:00,
2013-05-13 18:18:00,59.2,37.8,28.92,South,180,17.3,17.3,45,0.00,CLR,,0.00,WeatherDisplay:10.37,2013-05-13 23:18:00,
2013-05-13 18:20:00,45.5,38.4,28.71,NE,45,1.0,2.0,76,0.00,CLR,,0.00,WeatherDisplay:10.37,2013-05-13 23:20:00,
2013-05-13 18:23:00,60.8,39.9,28.92,SSE,158,18.4,18.4,46,0.00,CLR,,0.00,WeatherDisplay:10.37,2013-05-13 23:23:00,
2013-05-13 18:25:00,45.5,38.4,28.71,NE,45,1.0,2.0,76,0.00,CLR,,0.00,WeatherDisplay:10.37,2013-05-13 23:25:00,
2013-05-13 18:28:00,60.8,39.3,28.92,South,180,21.9,21.9,45,0.00,CLR,,0.00,WeatherDisplay:10.37,2013-05-13 23:28:00,
2013-05-13 18:30:00,44.1,39.2,28.72,NE,45,3.0,5.0,83,0.00,CLR,,0.00,WeatherDisplay:10.37,2013-05-13 23:30:00,
2013-05-13 18:33:00,58.5,38.8,28.92,South,180,15.0,15.0,48,0.00,CLR,,0.00,WeatherDisplay:10.37,2013-05-13 23:33:00,
2013-05-13 18:35:00,44.1,39.2,28.72,NE,45,3.0,5.0,83,0.00,CLR,,0.00,WeatherDisplay:10.37,2013-05-13 23:35:00,
2013-05-13 18:38:00,60.1,41.9,28.92,SE,135,16.1,16.1,51,0.00,CLR,,0.00,WeatherDisplay:10.37,2013-05-13 23:38:00,
2013-05-13 18:40:00,44.1,39.2,28.72,NE,45,3.0,5.0,83,0.00,CLR,,0.00,WeatherDisplay:10.37,2013-05-13 23:40:00,
2013-05-13 18:43:00,59.7,42.6,28.91,South,180,15.0,15.0,53,0.00,CLR,,0.00,WeatherDisplay:10.37,2013-05-13 23:43:00,
2013-05-13 18:45:00,44.1,39.2,28.72,NE,45,3.0,5.0,83,0.00,CLR,,0.00,WeatherDisplay:10.37,2013-05-13 23:45:00,
2013-05-13 18:48:00,60.4,40.1,28.91,South,180,17.3,17.3,47,0.00,CLR,,0.00,WeatherDisplay:10.37,2013-05-13 23:48:00,
2013-05-13 18:50:00,44.1,39.2,28.72,NE,45,3.0,5.0,83,0.00,CLR,,0.00,WeatherDisplay:10.37,2013-05-13 23:50:00,
2013-05-13 18:53:00,60.3,43.5,28.90,SE,135,17.3,17.3,54,0.00,CLR,,0.00,WeatherDisplay:10.37,2013-05-13 23:53:00,
2013-05-13 18:55:00,44.1,39.2,28.72,NE,45,3.0,5.0,83,0.00,CLR,,0.00,WeatherDisplay:10.37,2013-05-13 23:55:00,
2013-05-13 18:58:00,59.9,43.7,28.90,SE,135,17.3,17.3,55,0.00,CLR,,0.00,WeatherDisplay:10.37,2013-05-13 23:58:00,
2013-05-13 19:00:00,47.5,40.6,28.73,NE,43,0.0,5.0,77,0.00,CLR,,0.00,WeatherDisplay:10.37,2013-05-14 00:00:00,
2013-05-13 19:03:00,60.1,42.9,28.90,South,180,17.3,17.3,53,0.00,CLR,,0.00,WeatherDisplay:10.37,2013-05-14 00:03:00,
2013-05-13 19:05:00,47.5,40.6,28.73,NNE,21,0.0,1.0,77,0.00,CLR,,0.00,WeatherDisplay:10.37,2013-05-14 00:05:00,
2013-05-13 19:08:00,59.4,43.2,28.90,SSE,158,17.3,17.3,55,0.00,CLR,,0.00,WeatherDisplay:10.37,2013-05-14 00:08:00,
2013-05-13 19:10:00,47.5,40.6,28.73,NW,315,0.0,1.0,77,0.00,CLR,,0.00,WeatherDisplay:10.37,2013-05-14 00:10:00,
2013-05-13 19:13:00,59.5,43.8,28.90,SE,135,16.1,16.1,56,0.00,CLR,,0.00,WeatherDisplay:10.37,2013-05-14 00:13:00,
2013-05-13 19:15:00,47.5,40.6,28.73,NW,315,0.0,1.0,77,0.00,CLR,,0.00,WeatherDisplay:10.37,2013-05-14 00:15:00,
2013-05-13 19:18:00,57.6,42.9,28.89,SE,135,17.3,17.3,58,0.00,CLR,,0.00,WeatherDisplay:10.37,2013-05-14 00:18:00,
2013-05-13 19:20:00,47.5,40.6,28.73,NW,315,0.0,1.0,77,0.00,CLR,,0.00,WeatherDisplay:10.37,2013-05-14 00:20:00,
2013-05-13 19:23:00,59.4,43.2,28.89,SE,135,16.1,16.1,55,0.00,CLR,,0.00,WeatherDisplay:10.37,2013-05-14 00:23:00,
2013-05-13 19:25:00,47.5,40.6,28.73,NW,315,0.0,1.0,77,0.00,CLR,,0.00,WeatherDisplay:10.37,2013-05-14 00:25:00,
2013-05-13 19:28:00,59.4,43.2,28.88,SSE,158,15.0,15.0,55,0.00,CLR,,0.00,WeatherDisplay:10.37,2013-05-14 00:28:00,
2013-05-13 19:30:00,54.9,42.9,28.72,NW,315,0.0,1.0,64,0.00,CLR,,0.00,WeatherDisplay:10.37,2013-05-14 00:30:00,
2013-05-13 19:33:00,57.6,42.0,28.88,SE,135,17.3,17.3,56,0.00,CLR,,0.00,WeatherDisplay:10.37,2013-05-14 00:33:00,
2013-05-13 19:35:00,54.9,42.9,28.72,SE,135,0.0,1.0,64,0.00,CLR,,0.00,WeatherDisplay:10.37,2013-05-14 00:35:00,
2013-05-13 19:38:00,59.9,43.2,28.88,SE,135,18.4,18.4,54,0.00,CLR,,0.00,WeatherDisplay:10.37,2013-05-14 00:38:00,
2013-05-13 19:40:00,54.9,42.9,28.72,SE,135,0.0,1.0,64,0.00,CLR,,0.00,WeatherDisplay:10.37,2013-05-14 00:40:00,
2013-05-13 19:43:00,59.4,43.2,28.87,South,180,17.3,17.3,55,0.00,CLR,,0.00,WeatherDisplay:10.37,2013-05-14 00:43:00,
2013-05-13 19:45:00,54.9,42.9,28.72,SE,135,0.0,1.0,64,0.00,CLR,,0.00,WeatherDisplay:10.37,2013-05-14 00:45:00,
2013-05-13 19:48:00,59.4,43.2,28.87,SE,135,15.0,15.0,55,0.00,CLR,,0.00,WeatherDisplay:10.37,2013-05-14 00:48:00,
2013-05-13 19:50:00,54.9,42.9,28.72,SE,135,0.0,1.0,64,0.00,CLR,,0.00,WeatherDisplay:10.37,2013-05-14 00:50:00,
2013-05-13 19:53:00,57.2,42.5,28.87,SE,135,17.3,17.3,58,0.00,CLR,,0.00,WeatherDisplay:10.37,2013-05-14 00:53:00,
2013-05-13 19:55:00,54.9,42.9,28.72,SE,135,0.0,1.0,64,0.00,CLR,,0.00,WeatherDisplay:10.37,2013-05-14 00:55:00,
2013-05-13 19:58:00,59.5,42.9,28.87,SE,135,18.4,18.4,54,0.00,CLR,,0.00,WeatherDisplay:10.37,2013-05-14 00:58:00,
2013-05-13 20:00:00,54.3,42.8,28.73,SE,126,1.0,2.0,65,0.00,CLR,,0.00,WeatherDisplay:10.37,2013-05-14 01:00:00,
2013-05-13 20:03:00,59.0,43.3,28.87,South,180,16.8,16.8,56,0.00,CLR,,0.00,WeatherDisplay:10.37,2013-05-14 01:03:00,
2013-05-13 20:05:00,54.3,42.8,28.73,ENE,71,1.0,2.0,65,0.00,CLR,,0.00,WeatherDisplay:10.37,2013-05-14 01:05:00,
2013-05-13 20:08:00,57.0,41.9,28.86,SSE,158,16.1,16.1,57,0.00,CLR,,0.00,WeatherDisplay:10.37,2013-05-14 01:08:00,
2013-05-13 20:10:00,54.3,42.8,28.73,NE,45,1.0,2.0,65,0.00,CLR,,0.00,WeatherDisplay:10.37,2013-05-14 01:10:00,
2013-05-13 20:13:00,57.2,42.1,28.86,South,180,17.3,17.3,57,0.00,CLR,,0.00,WeatherDisplay:10.37,2013-05-14 01:13:00,
2013-05-13 20:15:00,54.3,42.8,28.73,NE,45,1.0,2.0,65,0.00,CLR,,0.00,WeatherDisplay:10.37,2013-05-14 01:15:00,
2013-05-13 20:18:00,57.2,41.6,28.86,SE,135,15.0,15.0,56,0.00,CLR,,0.00,WeatherDisplay:10.37,2013-05-14 01:18:00,
2013-05-13 20:20:00,54.3,42.8,28.73,NE,45,1.0,2.0,65,0.00,CLR,,0.00,WeatherDisplay:10.37,2013-05-14 01:20:00,
2013-05-13 20:23:00,57.2,41.6,28.85,SE,135,17.3,17.3,56,0.00,CLR,,0.00,WeatherDisplay:10.37,2013-05-14 01:23:00,
2013-05-13 20:25:00,54.3,42.8,28.73,NE,45,1.0,2.0,65,0.00,CLR,,0.00,WeatherDisplay:10.37,2013-05-14 01:25:00,
2013-05-13 20:28:00,57.0,41.5,28.85,SE,135,17.3,17.3,56,0.00,CLR,,0.00,WeatherDisplay:10.37,2013-05-14 01:28:00,
2013-05-13 20:30:00,56.8,45.2,28.72,NE,56,3.0,4.0,65,0.00,CLR,,0.00,WeatherDisplay:10.37,2013-05-14 01:30:00,
2013-05-13 20:33:00,57.0,41.0,28.85,SE,135,15.0,15.0,55,0.00,CLR,,0.00,WeatherDisplay:10.37,2013-05-14 01:33:00,
2013-05-13 20:35:00,56.8,45.2,28.72,SSE,163,3.0,4.0,65,0.00,CLR,,0.00,WeatherDisplay:10.37,2013-05-14 01:35:00,
2013-05-13 20:38:00,57.0,41.0,28.85,South,180,16.1,16.1,55,0.00,CLR,,0.00,WeatherDisplay:10.37,2013-05-14 01:38:00,
2013-05-13 20:40:00,56.8,45.2,28.72,South,180,3.0,4.0,65,0.00,CLR,,0.00,WeatherDisplay:10.37,2013-05-14 01:40:00,
2013-05-13 20:43:00,56.8,42.2,28.84,SSE,158,18.4,18.4,58,0.00,CLR,,0.00,WeatherDisplay:10.37,2013-05-14 01:43:00,
2013-05-13 20:45:00,56.8,45.2,28.72,South,180,3.0,4.0,65,0.00,CLR,,0.00,WeatherDisplay:10.37,2013-05-14 01:45:00,
2013-05-13 20:48:00,56.8,41.8,28.84,SE,135,15.0,15.0,57,0.00,CLR,,0.00,WeatherDisplay:10.37,2013-05-14 01:48:00,
2013-05-13 20:50:00,56.8,45.2,28.72,South,180,3.0,4.0,65,0.00,CLR,,0.00,WeatherDisplay:10.37,2013-05-14 01:50:00,
2013-05-13 20:53:00,56.8,41.3,28.84,SE,135,16.1,16.1,56,0.00,CLR,,0.00,WeatherDisplay:10.37,2013-05-14 01:53:00,
2013-05-13 20:55:00,56.8,45.2,28.72,South,180,3.0,4.0,65,0.00,CLR,,0.00,WeatherDisplay:10.37,2013-05-14 01:55:00,
2013-05-13 20:58:00,56.7,42.0,28.84,SE,135,16.1,16.1,58,0.00,CLR,,0.00,WeatherDisplay:10.37,2013-05-14 01:58:00,
2013-05-13 21:00:00,61.2,46.3,28.72,South,180,2.0,4.0,58,0.00,CLR,,0.00,WeatherDisplay:10.37,2013-05-14 02:00:00,
2013-05-13 21:03:00,56.8,41.3,28.84,SE,135,17.3,17.3,56,0.00,CLR,,0.00,WeatherDisplay:10.37,2013-05-14 02:03:00,
2013-05-13 21:05:00,61.2,46.3,28.72,South,180,2.0,4.0,58,0.00,CLR,,0.00,WeatherDisplay:10.37,2013-05-14 02:05:00,
2013-05-13 21:08:00,56.5,42.3,28.83,SSE,158,15.0,15.0,59,0.00,CLR,,0.00,WeatherDisplay:10.37,2013-05-14 02:08:00,
2013-05-13 21:10:00,61.2,46.3,28.72,South,180,2.0,4.0,58,0.00,CLR,,0.00,WeatherDisplay:10.37,2013-05-14 02:10:00,
2013-05-13 21:13:00,56.5,41.9,28.83,SE,135,17.3,17.3,58,0.00,CLR,,0.00,WeatherDisplay:10.37,2013-05-14 02:13:00,
2013-05-13 21:15:00,61.2,46.3,28.72,South,180,2.0,4.0,58,0.00,CLR,,0.00,WeatherDisplay:10.37,2013-05-14 02:15:00,
2013-05-13 21:18:00,56.7,41.6,28.83,SSE,158,17.3,17.3,57,0.00,CLR,,0.00,WeatherDisplay:10.37,2013-05-14 02:18:00,
2013-05-13 21:20:00,61.2,46.3,28.72,South,180,2.0,4.0,58,0.00,CLR,,0.00,WeatherDisplay:10.37,2013-05-14 02:20:00,
2013-05-13 21:23:00,56.5,41.9,28.82,SE,135,16.1,16.1,58,0.00,CLR,,0.00,WeatherDisplay:10.37,2013-05-14 02:23:00,
2013-05-13 21:25:00,61.2,46.3,28.72,South,180,2.0,4.0,58,0.00,CLR,,0.00,WeatherDisplay:10.37,2013-05-14 02:25:00,
2013-05-13 21:28:00,56.3,42.1,28.82,SSE,158,17.3,17.3,59,0.00,CLR,,0.00,WeatherDisplay:10.37,2013-05-14 02:28:00,
2013-05-13 21:30:00,64.4,46.9,28.73,South,180,1.0,4.0,53,0.00,CLR,,0.00,WeatherDisplay:10.37,2013-05-14 02:30:00,
2013-05-13 21:33:00,56.5,41.4,28.82,SE,135,17.3,17.3,57,0.00,CLR,,0.00,WeatherDisplay:10.37,2013-05-14 02:33:00,
2013-05-13 21:35:00,64.4,46.9,28.73,South,180,1.0,2.0,53,0.00,CLR,,0.00,WeatherDisplay:10.37,2013-05-14 02:35:00,
2013-05-13 21:38:00,56.8,40.4,28.82,SE,135,19.6,19.6,54,0.00,CLR,,0.00,WeatherDisplay:10.37,2013-05-14 02:38:00,
2013-05-13 21:40:00,64.4,46.9,28.73,South,180,1.0,2.0,53,0.00,CLR,,0.00,WeatherDisplay:10.37,2013-05-14 02:40:00,
2013-05-13 21:43:00,56.7,41.6,28.82,South,180,15.0,15.0,57,0.00,CLR,,0.00,WeatherDisplay:10.37,2013-05-14 02:43:00,
2013-05-13 21:45:00,64.4,46.9,28.73,South,180,1.0,2.0,53,0.00,CLR,,0.00,WeatherDisplay:10.37,2013-05-14 02:45:00,
2013-05-13 21:48:00,56.7,41.1,28.82,SE,135,17.3,17.3,56,0.00,CLR,,0.00,WeatherDisplay:10.37,2013-05-14 02:48:00,
2013-05-13 21:50:00,64.4,46.9,28.73,South,180,1.0,2.0,53,0.00,CLR,,0.00,WeatherDisplay:10.37,2013-05-14 02:50:00,
2013-05-13 21:53:00,57.0,40.0,28.82,SE,135,19.6,19.6,53,0.00,CLR,,0.00,WeatherDisplay:10.37,2013-05-14 02:53:00,
2013-05-13 21:55:00,64.4,46.9,28.73,South,180,1.0,2.0,53,0.00,CLR,,0.00,WeatherDisplay:10.37,2013-05-14 02:55:00,
2013-05-13 21:58:00,56.7,41.1,28.82,SE,135,15.0,15.0,56,0.00,CLR,,0.00,WeatherDisplay:10.37,2013-05-14 02:58:00,
2013-05-13 22:00:00,66.0,47.9,28.74,South,174,2.0,3.0,52,0.00,CLR,,0.00,WeatherDisplay:10.37,2013-05-14 03:00:00,
2013-05-13 22:03:00,56.5,40.5,28.81,SE,135,17.3,17.3,55,0.00,CLR,,0.00,WeatherDisplay:10.37,2013-05-14 03:03:00,
2013-05-13 22:05:00,66.0,47.9,28.74,SSE,149,2.0,3.0,52,0.00,CLR,,0.00,WeatherDisplay:10.37,2013-05-14 03:05:00,
2013-05-13 22:08:00,56.5,41.0,28.81,SE,135,17.3,17.3,56,0.00,CLR,,0.00,WeatherDisplay:10.37,2013-05-14 03:08:00,
2013-05-13 22:10:00,66.0,47.9,28.74,SE,135,2.0,3.0,52,0.00,CLR,,0.00,WeatherDisplay:10.37,2013-05-14 03:10:00,
2013-05-13 22:13:00,56.5,41.0,28.81,SE,135,15.0,15.0,56,0.00,CLR,,0.00,WeatherDisplay:10.37,2013-05-14 03:13:00,
2013-05-13 22:15:00,66.0,47.9,28.74,SE,135,2.0,3.0,52,0.00,CLR,,0.00,WeatherDisplay:10.37,2013-05-14 03:15:00,
2013-05-13 22:18:00,56.7,40.2,28.81,SE,135,16.1,16.1,54,0.00,CLR,,0.00,WeatherDisplay:10.37,2013-05-14 03:18:00,
2013-05-13 22:20:00,66.0,47.9,28.74,SE,135,2.0,3.0,52,0.00,CLR,,0.00,WeatherDisplay:10.37,2013-05-14 03:20:00,
2013-05-13 22:23:00,56.5,41.4,28.81,South,180,15.0,15.0,57,0.00,CLR,,0.00,WeatherDisplay:10.37,2013-05-14 03:23:00,
2013-05-13 22:25:00,66.0,47.9,28.74,SE,135,2.0,3.0,52,0.00,CLR,,0.00,WeatherDisplay:10.37,2013-05-14 03:25:00,
2013-05-13 22:28:00,56.1,41.5,28.81,SE,135,15.0,15.0,58,0.00,CLR,,0.00,WeatherDisplay:10.37,2013-05-14 03:28:00,
2013-05-13 22:30:00,67.3,48.5,28.73,SE,135,3.0,4.0,51,0.00,CLR,,0.00,WeatherDisplay:10.37,2013-05-14 03:30:00,
2013-05-13 22:33:00,55.9,41.4,28.81,South,180,15.0,15.0,58,0.00,CLR,,0.00,WeatherDisplay:10.37,2013-05-14 03:33:00,
2013-05-13 22:35:00,67.3,48.5,28.73,SE,135,3.0,4.0,51,0.00,CLR,,0.00,WeatherDisplay:10.37,2013-05-14 03:35:00,
2013-05-13 22:40:00,67.3,48.5,28.73,SE,135,3.0,4.0,51,0.00,CLR,,0.00,WeatherDisplay:10.37,2013-05-14 03:40:00,
2013-05-13 22:45:00,67.3,48.5,28.73,SE,135,3.0,4.0,51,0.00,CLR,,0.00,WeatherDisplay:10.37,2013-05-14 03:45:00,
2013-05-13 22:50:00,67.3,48.5,28.73,SE,135,3.0,4.0,51,0.00,CLR,,0.00,WeatherDisplay:10.37,2013-05-14 03:50:00,
2013-05-13 22:55:00,67.3,48.5,28.73,SE,135,3.0,4.0,51,0.00,CLR,,0.00,WeatherDisplay:10.37,2013-05-14 03:55:00,
2013-05-13 23:00:00,70.7,50.0,28.73,SE,133,1.0,4.0,48,0.00,CLR,,0.00,WeatherDisplay:10.37,2013-05-14 04:00:00,
2013-05-13 23:05:00,70.7,50.0,28.73,ESE,116,1.0,2.0,48,0.00,CLR,,0.00,WeatherDisplay:10.37,2013-05-14 04:05:00,
2013-05-13 23:10:00,70.7,50.0,28.73,East,90,1.0,2.0,48,0.00,CLR,,0.00,WeatherDisplay:10.37,2013-05-14 04:10:00,
2013-05-13 23:15:00,70.7,50.0,28.73,East,90,1.0,2.0,48,0.00,CLR,,0.00,WeatherDisplay:10.37,2013-05-14 04:15:00,
2013-05-13 23:20:00,70.7,50.0,28.73,East,90,1.0,2.0,48,0.00,CLR,,0.00,WeatherDisplay:10.37,2013-05-14 04:20:00,
2013-05-13 23:25:00,70.7,50.0,28.73,East,90,1.0,2.0,48,0.00,CLR,,0.00,WeatherDisplay:10.37,2013-05-14 04:25:00,
2013-05-13 23:30:00,73.8,49.2,28.76,East,84,1.0,4.0,42,0.00,CLR,,0.00,WeatherDisplay:10.37,2013-05-14 04:30:00,
2013-05-13 23:35:00,73.8,49.2,28.76,NE,34,1.0,4.0,42,0.00,CLR,,0.00,WeatherDisplay:10.37,2013-05-14 04:35:00,
2013-05-13 23:40:00,73.8,49.2,28.76,North,0,1.0,4.0,42,0.00,CLR,,0.00,WeatherDisplay:10.37,2013-05-14 04:40:00,
2013-05-13 23:45:00,73.8,49.2,28.76,North,0,1.0,4.0,42,0.00,CLR,,0.00,WeatherDisplay:10.37,2013-05-14 04:45:00,
2013-05-13 23:50:00,73.8,49.2,28.76,North,0,1.0,4.0,42,0.00,CLR,,0.00,WeatherDisplay:10.37,2013-05-14 04:50:00,
2013-05-13 23:55:00,73.8,49.2,28.76,North,0,1.0,4.0,42,0.00,CLR,,0.00,WeatherDisplay:10.37,2013-05-14 04:55:00,